createdAt,value
2022-10-17T00:01:20.869Z,96985.03
2022-10-17T00:03:49.846Z,96985.59
2022-10-17T00:06:18.638Z,96980.53
2022-10-17T00:08:47.401Z,96974.22
2022-10-17T00:11:19.804Z,96966.50
2022-10-17T00:13:49.725Z,96969.94
2022-10-17T00:16:37.040Z,96965.91
2022-10-17T00:19:07.947Z,96963.72
2022-10-17T00:21:36.756Z,96959.38
2022-10-17T00:24:05.934Z,96955.41
2022-10-17T00:26:34.762Z,96954.69
2022-10-17T00:29:03.646Z,96949.88
2022-10-17T00:31:32.474Z,96955.31
2022-10-17T00:34:01.258Z,96935.44
2022-10-17T00:36:30.785Z,96940.38
2022-10-17T00:39:00.395Z,96934.03
2022-10-17T00:41:32.816Z,96935.44
2022-10-17T00:44:03.883Z,96934.69
2022-10-17T00:46:37.780Z,96931.53
2022-10-17T00:49:12.194Z,96910.69
2022-10-17T00:51:50.094Z,96929.06
2022-10-17T00:54:22.478Z,96922.59
2022-10-17T00:56:52.165Z,96929.19
2022-10-17T00:59:22.888Z,96923.03
2022-10-17T01:02:04.852Z,96914.50
2022-10-17T01:04:33.842Z,96911.81
2022-10-17T01:07:02.551Z,96906.34
2022-10-17T01:09:31.685Z,96909.09
2022-10-17T01:12:22.199Z,96909.00
2022-10-17T01:15:13.278Z,96912.50
2022-10-17T01:18:07.458Z,96913.03
2022-10-17T01:20:54.656Z,96909.72
2022-10-17T01:23:54.056Z,96905.84
2022-10-17T01:26:56.502Z,96906.00
2022-10-17T01:29:37.329Z,96907.38
2022-10-17T01:32:16.822Z,96908.56
2022-10-17T01:34:59.771Z,96912.03
2022-10-17T01:37:34.558Z,96901.22
2022-10-17T01:40:30.909Z,96906.38
2022-10-17T01:43:14.832Z,96904.13
2022-10-17T01:45:48.172Z,96907.66
2022-10-17T01:48:24.502Z,96899.59
2022-10-17T01:51:00.515Z,96901.28
2022-10-17T01:53:41.315Z,96898.31
2022-10-17T01:56:12.434Z,96892.47
2022-10-17T01:58:48.733Z,96888.56
2022-10-17T02:01:19.435Z,96887.81
2022-10-17T02:03:51.961Z,96879.88
2022-10-17T02:06:20.853Z,96883.19
2022-10-17T02:08:51.217Z,96880.28
2022-10-17T02:11:25.479Z,96884.53
2022-10-17T02:14:15.614Z,96884.31
2022-10-17T02:16:57.130Z,96880.66
2022-10-17T02:19:40.030Z,96879.13
2022-10-17T02:22:30.570Z,96872.59
2022-10-17T02:25:08.460Z,96870.56
2022-10-17T02:27:44.284Z,96863.13
2022-10-17T02:30:34.718Z,96855.91
2022-10-17T02:33:16.139Z,96861.72
2022-10-17T02:35:51.116Z,96857.69
2022-10-17T02:38:22.487Z,96859.59
2022-10-17T02:40:54.130Z,96858.13
2022-10-17T02:43:24.396Z,96855.03
2022-10-17T02:45:54.832Z,96853.66
2022-10-17T02:48:45.051Z,96844.78
2022-10-17T02:51:22.743Z,96837.84
2022-10-17T02:54:35.043Z,96828.91
2022-10-17T02:57:22.974Z,96825.34
2022-10-17T02:59:52.861Z,96814.84
2022-10-17T03:02:22.097Z,96827.00
2022-10-17T03:04:51.263Z,96817.22
2022-10-17T03:07:20.113Z,96811.53
2022-10-17T03:09:48.926Z,96808.13
2022-10-17T03:12:18.007Z,96803.41
2022-10-17T03:14:46.867Z,96811.34
2022-10-17T03:17:15.697Z,96801.31
2022-10-17T03:19:44.655Z,96798.56
2022-10-17T03:22:13.527Z,96791.59
2022-10-17T03:24:44.545Z,96792.72
2022-10-17T03:27:13.517Z,96785.75
2022-10-17T03:29:42.472Z,96797.38
2022-10-17T03:32:12.229Z,96783.56
2022-10-17T03:34:41.459Z,96774.31
2022-10-17T03:37:11.458Z,96786.56
2022-10-17T03:39:42.366Z,96778.38
2022-10-17T03:42:11.269Z,96784.94
2022-10-17T03:44:40.165Z,96780.56
2022-10-17T03:47:11.838Z,96780.94
2022-10-17T03:49:43.435Z,96773.03
2022-10-17T03:52:14.056Z,96779.53
2022-10-17T03:54:43.197Z,96776.66
2022-10-17T03:57:12.035Z,96764.81
2022-10-17T03:59:41.571Z,96755.56
2022-10-17T04:02:16.646Z,96753.25
2022-10-17T04:04:46.236Z,96744.66
2022-10-17T04:07:15.327Z,96745.75
2022-10-17T04:09:46.849Z,96744.16
2022-10-17T04:12:20.503Z,96741.44
2022-10-17T04:14:49.399Z,96735.25
2022-10-17T04:17:18.852Z,96738.34
2022-10-17T04:19:49.663Z,96728.44
2022-10-17T04:22:19.779Z,96716.66
2022-10-17T04:24:48.931Z,96720.22
2022-10-17T04:27:31.892Z,96724.69
2022-10-17T04:30:00.834Z,96713.66
2022-10-17T04:32:32.011Z,96712.88
2022-10-17T04:35:14.867Z,96702.41
2022-10-17T04:37:48.575Z,96702.72
2022-10-17T04:40:19.955Z,96703.13
2022-10-17T04:42:49.170Z,96700.72
2022-10-17T04:45:21.896Z,96689.06
2022-10-17T04:47:55.376Z,96691.75
2022-10-17T04:50:24.270Z,96678.38
2022-10-17T04:53:12.911Z,96678.22
2022-10-17T04:55:41.774Z,96675.00
2022-10-17T04:58:10.713Z,96669.59
2022-10-17T05:00:40.506Z,96670.66
2022-10-17T05:03:16.584Z,96670.22
2022-10-17T05:05:45.360Z,96665.19
2022-10-17T05:08:14.426Z,96656.16
2022-10-17T05:10:46.625Z,96658.00
2022-10-17T05:13:15.800Z,96654.59
2022-10-17T05:15:44.591Z,96648.66
2022-10-17T05:18:14.407Z,96648.19
2022-10-17T05:20:45.430Z,96643.94
2022-10-17T05:23:14.328Z,96646.63
2022-10-17T05:25:46.138Z,96644.19
2022-10-17T05:28:14.966Z,96633.78
2022-10-17T05:30:45.458Z,96623.47
2022-10-17T05:33:14.402Z,96634.47
2022-10-17T05:35:43.616Z,96622.81
2022-10-17T05:38:12.472Z,96624.72
2022-10-17T05:40:43.579Z,96616.41
2022-10-17T05:43:12.569Z,96612.41
2022-10-17T05:45:41.809Z,96608.28
2022-10-17T05:48:15.151Z,96599.69
2022-10-17T05:50:44.789Z,96597.28
2022-10-17T05:53:17.842Z,96591.84
2022-10-17T05:55:57.312Z,96588.44
2022-10-17T06:01:30.437Z,96589.59
2022-10-17T06:04:00.053Z,96593.13
2022-10-17T06:06:28.860Z,96584.53
2022-10-17T06:08:57.937Z,96574.06
2022-10-17T06:11:32.744Z,96583.75
2022-10-17T06:14:03.064Z,96578.22
2022-10-17T06:16:32.408Z,96573.16
2022-10-17T06:19:01.590Z,96565.91
2022-10-17T06:21:31.452Z,96556.69
2022-10-17T06:24:07.394Z,96571.13
2022-10-17T06:26:38.420Z,96568.53
2022-10-17T06:29:09.254Z,96554.22
2022-10-17T06:31:47.871Z,96545.47
2022-10-17T06:34:17.281Z,96548.84
2022-10-17T06:36:47.928Z,96540.25
2022-10-17T06:39:17.207Z,96547.59
2022-10-17T06:42:02.590Z,96537.16
2022-10-17T06:44:47.898Z,96524.34
2022-10-17T06:47:54.896Z,96530.56
2022-10-17T06:50:46.593Z,96521.75
2022-10-17T06:53:19.807Z,96521.34
2022-10-17T06:56:07.637Z,96531.19
2022-10-17T06:58:56.134Z,96516.56
2022-10-17T07:01:33.218Z,96501.34
2022-10-17T07:04:04.909Z,96507.50
2022-10-17T07:06:35.723Z,96505.66
2022-10-17T07:09:11.534Z,96501.00
2022-10-17T07:11:40.850Z,96500.63
2022-10-17T07:14:09.664Z,96497.19
2022-10-17T07:16:38.642Z,96492.81
2022-10-17T07:19:14.895Z,96478.22
2022-10-17T07:21:43.682Z,96475.34
2022-10-17T07:24:13.781Z,96467.09
2022-10-17T07:26:47.395Z,96465.91
2022-10-17T07:29:16.937Z,96459.13
2022-10-17T07:32:09.219Z,96454.25
2022-10-17T07:34:38.471Z,96450.66
2022-10-17T07:37:10.497Z,96445.28
2022-10-17T07:39:42.150Z,96439.41
2022-10-17T07:42:11.489Z,96447.91
2022-10-17T07:44:40.529Z,96443.13
2022-10-17T07:47:09.482Z,96449.34
2022-10-17T07:49:44.243Z,96448.44
2022-10-17T07:52:17.458Z,96429.28
2022-10-17T07:54:46.322Z,96437.56
2022-10-17T07:57:15.140Z,96440.19
2022-10-17T07:59:43.948Z,96442.00
2022-10-17T08:02:24.721Z,96434.91
2022-10-17T08:04:54.535Z,96429.25
2022-10-17T08:07:27.015Z,96424.78
2022-10-17T08:09:58.269Z,96426.72
2022-10-17T08:12:27.601Z,96419.78
2022-10-17T08:14:56.740Z,96423.75
2022-10-17T08:17:25.672Z,96417.59
2022-10-17T08:19:54.553Z,96408.84
2022-10-17T08:22:23.392Z,96414.31
2022-10-17T08:24:52.154Z,96407.91
2022-10-17T08:27:29.436Z,96404.78
2022-10-17T08:29:58.158Z,96408.97
2022-10-17T08:32:28.801Z,96397.34
2022-10-17T08:34:57.943Z,96396.44
2022-10-17T08:37:26.964Z,96378.31
2022-10-17T08:39:55.987Z,96397.31
2022-10-17T08:43:02.021Z,96387.53
2022-10-17T08:45:34.682Z,96380.31
2022-10-17T08:48:10.660Z,96382.97
2022-10-17T08:51:03.761Z,96384.31
2022-10-17T08:53:37.512Z,96363.09
2022-10-17T08:56:25.037Z,96378.03
2022-10-17T08:59:12.331Z,96377.31
2022-10-17T09:01:47.534Z,96372.00
2022-10-17T09:05:02.261Z,96366.09
2022-10-17T09:07:46.829Z,96363.47
2022-10-17T09:10:24.673Z,96360.34
2022-10-17T09:13:47.066Z,96361.88
2022-10-17T09:17:00.542Z,96353.78
2022-10-17T09:19:55.171Z,96352.09
2022-10-17T09:22:31.565Z,96346.97
2022-10-17T09:25:10.977Z,96345.03
2022-10-17T09:27:54.629Z,96333.84
2022-10-17T09:30:45.636Z,96335.59
2022-10-17T09:33:28.453Z,96319.28
2022-10-17T09:36:28.045Z,96331.50
2022-10-17T09:39:00.857Z,96320.94
2022-10-17T09:41:46.097Z,96322.31
2022-10-17T09:44:22.374Z,96308.91
2022-10-17T09:47:26.388Z,96315.72
2022-10-17T09:49:55.347Z,96304.41
2022-10-17T09:52:58.376Z,96307.19
2022-10-17T09:55:52.053Z,96318.56
2022-10-17T09:58:21.647Z,96319.88
2022-10-17T10:00:51.548Z,96315.88
2022-10-17T10:03:22.025Z,96314.84
2022-10-17T10:06:00.206Z,96320.72
2022-10-17T10:08:56.340Z,96309.34
2022-10-17T10:11:57.543Z,96314.78
2022-10-17T10:14:37.992Z,96319.09
2022-10-17T10:17:42.753Z,96318.06
2022-10-17T10:20:38.148Z,96311.66
2022-10-17T10:23:13.877Z,96304.59
2022-10-17T10:26:04.704Z,96302.28
2022-10-17T10:28:36.810Z,96291.53
2022-10-17T10:33:57.656Z,96291.97
2022-10-17T10:36:26.819Z,96307.53
2022-10-17T10:39:00.185Z,96294.25
2022-10-17T10:41:48.447Z,96289.59
2022-10-17T10:44:26.751Z,96292.16
2022-10-17T10:47:29.812Z,96281.97
2022-10-17T10:50:21.774Z,96284.50
2022-10-17T10:53:13.532Z,96278.69
2022-10-17T10:55:52.063Z,96278.69
2022-10-17T10:58:42.143Z,96276.66
2022-10-17T11:01:40.413Z,96271.19
2022-10-17T11:04:30.114Z,96265.69
2022-10-17T11:07:31.941Z,96262.16
2022-10-17T11:10:09.897Z,96279.59
2022-10-17T11:13:07.919Z,96271.59
2022-10-17T11:16:12.918Z,96270.03
2022-10-17T11:19:03.007Z,96267.34
2022-10-17T11:22:06.469Z,96275.69
2022-10-17T11:24:45.810Z,96268.63
2022-10-17T11:27:14.690Z,96276.78
2022-10-17T11:29:46.548Z,96276.94
2022-10-17T11:32:33.081Z,96248.69
2022-10-17T11:35:15.740Z,96249.56
2022-10-17T11:37:50.782Z,96248.47
2022-10-17T11:40:34.554Z,96237.31
2022-10-17T11:43:16.114Z,96218.94
2022-10-17T11:45:53.855Z,96212.50
2022-10-17T11:48:24.566Z,96207.31
2022-10-17T11:54:05.114Z,96224.03
2022-10-17T11:57:01.459Z,96218.19
2022-10-17T12:00:05.034Z,96222.84
2022-10-17T12:03:05.938Z,96211.78
2022-10-17T12:05:46.595Z,96204.78
2022-10-17T12:08:30.583Z,96201.94
2022-10-17T12:11:10.749Z,96199.25
2022-10-17T12:13:47.919Z,96190.75
2022-10-17T12:16:22.855Z,96178.84
2022-10-17T12:19:06.928Z,96176.47
2022-10-17T12:21:57.549Z,96176.81
2022-10-17T12:24:44.684Z,96172.91
2022-10-17T12:27:35.995Z,96168.53
2022-10-17T12:30:26.785Z,96164.72
2022-10-17T12:33:05.548Z,96166.81
2022-10-17T12:35:37.763Z,96166.41
2022-10-17T12:38:20.328Z,96161.56
2022-10-17T12:40:51.797Z,96163.50
2022-10-17T12:43:46.749Z,96153.66
2022-10-17T12:46:41.414Z,96142.00
2022-10-17T12:49:47.132Z,96151.41
2022-10-17T12:52:44.251Z,96151.84
2022-10-17T12:55:16.563Z,96149.47
2022-10-17T12:58:02.700Z,96147.38
2022-10-17T13:03:48.929Z,96131.25
2022-10-17T13:06:24.893Z,96135.50
2022-10-17T13:09:03.484Z,96127.09
2022-10-17T13:11:35.676Z,96130.66
2022-10-17T13:14:13.163Z,96136.16
2022-10-17T13:16:52.063Z,96133.03
2022-10-17T13:19:24.602Z,96123.13
2022-10-17T13:22:06.344Z,96122.53
2022-10-17T13:24:38.721Z,96122.41
2022-10-17T13:27:32.263Z,96123.72
2022-10-17T13:30:03.207Z,96113.56
2022-10-17T13:32:40.430Z,96114.66
2022-10-17T13:35:16.018Z,96100.56
2022-10-17T13:37:51.608Z,96095.88
2022-10-17T13:40:44.545Z,96097.97
2022-10-17T13:43:20.321Z,96093.00
2022-10-17T13:45:52.182Z,96096.78
2022-10-17T13:48:29.363Z,96091.34
2022-10-17T13:51:02.830Z,96099.16
2022-10-17T13:53:35.791Z,96087.81
2022-10-17T13:56:27.791Z,96092.06
2022-10-17T13:59:06.125Z,96084.50
2022-10-17T14:01:35.139Z,96093.66
2022-10-17T14:04:19.418Z,96086.88
2022-10-17T14:06:52.132Z,96091.59
2022-10-17T14:09:30.694Z,96090.13
2022-10-17T14:12:01.806Z,96087.94
2022-10-17T14:14:46.203Z,96081.81
2022-10-17T14:17:31.142Z,96087.84
2022-10-17T14:20:34.133Z,96089.75
2022-10-17T14:23:20.876Z,96096.91
2022-10-17T14:25:44.395Z,96093.47
2022-10-17T14:28:14.507Z,96086.22
2022-10-17T14:30:57.306Z,96093.56
2022-10-17T14:33:30.825Z,96084.66
2022-10-17T14:36:02.662Z,96088.22
2022-10-17T14:38:32.463Z,96090.56
2022-10-17T14:41:40.773Z,96086.34
2022-10-17T14:44:06.864Z,96080.44
2022-10-17T14:46:37.493Z,96073.06
2022-10-17T14:49:09.050Z,96078.53
2022-10-17T14:51:50.302Z,96069.28
2022-10-17T14:54:30.431Z,96070.91
2022-10-17T14:56:59.433Z,96072.81
2022-10-17T14:59:52.637Z,96063.56
2022-10-17T15:02:18.247Z,96066.81
2022-10-17T15:04:47.230Z,96068.91
2022-10-17T15:07:17.893Z,96085.41
2022-10-17T15:09:50.202Z,96080.97
2022-10-17T15:12:22.042Z,96070.38
2022-10-17T15:14:52.248Z,96078.16
2022-10-17T15:17:28.017Z,96068.66
2022-10-17T15:19:58.066Z,96063.44
2022-10-17T15:22:27.183Z,96060.09
2022-10-17T15:24:56.132Z,96055.56
2022-10-17T15:27:27.249Z,96055.31
2022-10-17T15:29:56.280Z,96048.53
2022-10-17T15:32:25.264Z,96050.69
2022-10-17T15:34:54.073Z,96039.78
2022-10-17T15:37:25.111Z,96034.88
2022-10-17T15:39:55.311Z,96038.75
2022-10-17T15:42:28.796Z,96023.59
2022-10-17T15:44:58.555Z,96032.56
2022-10-17T15:47:36.097Z,96034.56
2022-10-17T15:50:07.246Z,96042.38
2022-10-17T15:52:36.797Z,96035.13
2022-10-17T15:55:06.051Z,96035.47
2022-10-17T15:57:39.273Z,96032.88
2022-10-17T16:00:21.172Z,96031.78
2022-10-17T16:02:50.888Z,96016.53
2022-10-17T16:05:29.847Z,96023.88
2022-10-17T16:07:58.983Z,96026.22
2022-10-17T16:10:27.785Z,96021.97
2022-10-17T16:12:56.873Z,96021.19
